• Join FlightAware (Why Join?)
  • Login
  • US Flag 
07:54AM EST


 

Airport Tracker/Info


-or-


 

Live Flight TrackerFlight Track Log ✈ N5355J ✈ 16-Aug-2014 ✈ KTDW - KMWL

Flight Track Log - Related Links

Times and Time Zones

All times are in EDT time to prevent confusion due to time zone crossing. See the N5355J flight status page for this flight to view local times or setup timezone preferences in your user account.

Time Position Orientation Groundspeed Altitude Reporting Facility
EDT Latitude Longitude Course Direction KTS MPH feet Rate Location/Type
03:18PM 34.7467 -101.1723 126° Southeast  Level FlightAware Approximate
03:19PM 34.7230 -101.1370 134° Southeast  Level FlightAware Approximate
03:20PM 34.6749 -101.0770 134° Southeast  Level FlightAware Approximate
03:21PM 34.6332 -101.0106 126° Southeast  Level FlightAware Approximate
03:22PM 34.5926 -100.9429 126° Southeast  Level FlightAware Approximate
03:23PM 34.5521 -100.8753 126° Southeast  Level FlightAware Approximate
03:24PM 34.5115 -100.8078 126° Southeast  Level FlightAware Approximate
03:25PM 34.4709 -100.7403 126° Southeast  Level FlightAware Approximate
03:26PM 34.4279 -100.6750 129° Southeast  Level FlightAware Approximate
03:27PM 34.3875 -100.6142 129° Southeast  Level FlightAware Approximate
03:28PM 34.3471 -100.5536 129° Southeast  Level FlightAware Approximate
03:29PM 34.3066 -100.4929 129° Southeast  Level FlightAware Approximate
03:30PM 34.2659 -100.4319 129° Southeast  Level FlightAware Approximate
03:31PM 34.2249 -100.3712 130° Southeast  Level FlightAware Approximate
03:32PM 34.1694 -100.2916 130° Southeast  Level FlightAware Approximate
03:33PM 34.1138 -100.2122 130° Southeast  Level FlightAware Approximate
03:34PM 34.0691 -100.1484 130° Southeast  Level FlightAware Approximate
03:35PM 34.0233 -100.0831 130° Southeast  Level FlightAware Approximate
03:36PM 33.9746 -100.0163 132° Southeast  Level FlightAware Approximate
03:37PM 33.9162 -99.9392 132° Southeast  Level FlightAware Approximate
03:38PM 33.8577 -99.8622 132° Southeast  Level FlightAware Approximate
03:39PM 33.7992 -99.7853 132° Southeast  Level FlightAware Approximate
03:40PM 33.7420 -99.7102 132° Southeast  Level FlightAware Approximate
03:41PM 33.6847 -99.6351 133° Southeast  Level FlightAware Approximate
03:42PM 33.6408 -99.5482 121° Southeast  Level FlightAware Approximate
03:43PM 33.5968 -99.4613 126° Southeast  Level FlightAware Approximate
03:44PM 33.5505 -99.3842 126° Southeast  Level FlightAware Approximate
03:45PM 33.4932 -99.3188 137° Southeast  Level FlightAware Approximate
03:46PM 33.4687 -99.2827 129° Southeast  Level FlightAware Approximate
03:47PM 33.4442 -99.2466 129° Southeast  Level FlightAware Approximate
03:48PM 33.4197 -99.2105 129° Southeast  Level FlightAware Approximate
03:49PM 33.3955 -99.1749 129° Southeast  Level FlightAware Approximate
03:50PM 33.3714 -99.1394 129° Southeast  Level FlightAware Approximate
03:51PM 33.3472 -99.1039 129° Southeast  Level FlightAware Approximate
03:52PM 33.3230 -99.0684 129° Southeast  Level FlightAware Approximate
03:53PM 33.2988 -99.0330 129° Southeast  Level FlightAware Approximate
03:54PM 33.2746 -98.9975 129° Southeast  Level FlightAware Approximate
03:55PM 33.2503 -98.9621 129° Southeast  Level FlightAware Approximate
03:56PM 33.2261 -98.9267 129° Southeast  Level FlightAware Approximate
03:57PM 33.2018 -98.8913 129° Southeast  Level FlightAware Approximate
03:58PM 33.1776 -98.8560 129° Southeast  Level FlightAware Approximate
03:59PM 33.1533 -98.8206 129° Southeast  Level FlightAware Approximate
04:00PM 33.1290 -98.7853 129° Southeast  Level FlightAware Approximate
04:01PM 33.1047 -98.7500 129° Southeast  Level FlightAware Approximate
04:02PM 33.0804 -98.7147 129° Southeast  Level FlightAware Approximate
04:03PM 33.0561 -98.6795 129° Southeast  Level FlightAware Approximate
04:04PM 33.0318 -98.6442 129° Southeast  Level FlightAware Approximate
04:05PM 33.0075 -98.6090 129° Southeast  Level FlightAware Approximate
04:06PM 32.9832 -98.5738 129° Southeast  Level FlightAware Approximate
04:07PM 32.9588 -98.5386 130° Southeast  Level FlightAware Approximate
04:08PM 32.9344 -98.5034 130° Southeast  Level FlightAware Approximate
04:09PM 32.9101 -98.4683 130° Southeast  Level FlightAware Approximate
04:10PM 32.8857 -98.4332 130° Southeast  Level FlightAware Approximate
04:11PM 32.8613 -98.3981 130° Southeast  Level FlightAware Approximate
04:12PM 32.8369 -98.3630 130° Southeast  Level FlightAware Approximate